createdAt,value
2022-08-11T00:03:10.442Z,23.03
2022-08-11T00:06:15.739Z,23.16
2022-08-11T00:09:20.992Z,23.24
2022-08-11T00:12:28.455Z,23.06
2022-08-11T00:15:31.634Z,23.21
2022-08-11T00:18:36.964Z,23.07
2022-08-11T00:21:05.168Z,23.41
2022-08-11T00:26:39.021Z,23.51
2022-08-11T00:29:06.998Z,23.66
2022-08-11T00:31:35.255Z,23.82
2022-08-11T00:34:03.468Z,23.89
2022-08-11T00:36:31.771Z,24.02
2022-08-11T00:39:37.084Z,23.83
2022-08-11T00:42:05.372Z,24.06
2022-08-11T00:44:33.542Z,24.03
2022-08-11T00:47:38.944Z,23.98
2022-08-11T00:50:07.119Z,24.07
2022-08-11T00:52:35.875Z,24.22
2022-08-11T00:55:03.590Z,23.85
2022-08-11T00:57:36.616Z,24.26
2022-08-11T01:00:37.233Z,24.54
2022-08-11T01:03:42.456Z,24.44
2022-08-11T01:07:16.652Z,24.57
2022-08-11T01:10:21.980Z,24.64
2022-08-11T01:13:27.337Z,24.51
2022-08-11T01:16:32.586Z,24.65
2022-08-11T01:20:39.402Z,24.95
2022-08-11T01:22:06.154Z,24.93
2022-08-11T01:24:34.394Z,25.02
2022-08-11T01:27:02.652Z,22.62
2022-08-11T01:30:07.964Z,25.17
2022-08-11T01:32:36.287Z,25.5
2022-08-11T01:35:04.480Z,25.3
2022-08-11T01:37:32.715Z,25.33
2022-08-11T01:40:37.995Z,25.54
2022-08-11T01:43:06.229Z,25.67
2022-08-11T01:45:34.477Z,25.64
2022-08-11T01:48:02.746Z,25.67
2022-08-11T01:50:30.973Z,26.11
2022-08-11T01:53:36.319Z,25.57
2022-08-11T01:56:04.539Z,25.68
2022-08-11T01:58:34.332Z,25.91
2022-08-11T02:01:38.095Z,26.02
2022-08-11T02:04:35.220Z,25.98
2022-08-11T02:07:03.488Z,26.05
2022-08-11T02:09:31.773Z,26.24
2022-08-11T02:12:37.132Z,26.44
2022-08-11T02:15:05.759Z,26.59
2022-08-11T02:17:33.544Z,26.62
2022-08-11T02:20:38.866Z,26.68
2022-08-11T02:23:07.096Z,26.81
2022-08-11T02:25:35.320Z,27.16
2022-08-11T02:28:03.623Z,27.05
2022-08-11T02:30:31.868Z,27
2022-08-11T02:33:37.140Z,27.22
2022-08-11T02:36:05.436Z,27.28
2022-08-11T02:38:33.624Z,27.32
2022-08-11T02:41:38.949Z,27.06
2022-08-11T02:44:07.194Z,27.07
2022-08-11T02:46:35.480Z,27.33
2022-08-11T02:49:03.726Z,25.2
2022-08-11T02:52:08.994Z,27.35
2022-08-11T02:54:37.238Z,27.61
2022-08-11T02:57:05.539Z,27.71
2022-08-11T02:59:33.765Z,27.46
2022-08-11T03:02:05.051Z,27.23
2022-08-11T03:04:22.060Z,27.54
2022-08-11T03:07:28.405Z,27.57
2022-08-11T03:10:32.679Z,27.96
2022-08-11T03:13:37.974Z,28.2
2022-08-11T03:16:06.267Z,28.22
2022-08-11T03:18:34.470Z,28.57
2022-08-11T03:21:02.773Z,27.49
2022-08-11T03:24:08.011Z,28.53
2022-08-11T03:26:36.268Z,28.88
2022-08-11T03:29:04.558Z,28.83
2022-08-11T03:31:32.796Z,28.31
2022-08-11T03:34:38.129Z,28.67
2022-08-11T03:37:15.904Z,28.82
2022-08-11T03:39:34.619Z,29.22
2022-08-11T03:42:05.420Z,29.1
2022-08-11T03:44:31.075Z,29.37
2022-08-11T03:47:36.394Z,29.42
2022-08-11T03:50:04.638Z,29.59
2022-08-11T03:52:32.969Z,29.3
2022-08-11T03:55:38.220Z,29.45
2022-08-11T03:58:06.494Z,29.16
2022-08-11T04:00:34.709Z,29.32
2022-08-11T04:03:02.968Z,29.47
2022-08-11T04:05:31.210Z,29.56
2022-08-11T04:08:36.529Z,29.57
2022-08-11T04:11:04.769Z,29.66
2022-08-11T04:13:33.054Z,29.52
2022-08-11T04:16:30.155Z,29.53
2022-08-11T04:19:35.438Z,29.72
2022-08-11T04:22:03.671Z,28.68
2022-08-11T04:25:09.055Z,29.68
2022-08-11T04:27:39.043Z,29.83
2022-08-11T04:30:05.876Z,29.61
2022-08-11T04:32:33.715Z,29.85
2022-08-11T04:35:39.052Z,29.84
2022-08-11T04:38:07.300Z,29.76
2022-08-11T04:40:35.532Z,29.97
2022-08-11T04:43:03.774Z,30.07
2022-08-11T04:45:32.030Z,30.35
2022-08-11T04:49:24.319Z,30.49
2022-08-11T04:52:19.715Z,30.38
2022-08-11T04:55:25.039Z,30.58
2022-08-11T04:58:31.424Z,30.39
2022-08-11T05:01:37.428Z,30.63
2022-08-11T05:04:03.888Z,30.6
2022-08-11T05:06:32.139Z,30.52
2022-08-11T05:09:37.471Z,30.42
2022-08-11T05:12:05.735Z,30.71
2022-08-11T05:14:33.989Z,30.02
2022-08-11T05:17:02.217Z,30.34
2022-08-11T05:19:30.474Z,30.47
2022-08-11T05:22:35.844Z,30.38
2022-08-11T05:26:09.964Z,30.43
2022-08-11T05:28:38.227Z,30.42
2022-08-11T05:31:06.439Z,30.41
2022-08-11T05:33:34.712Z,30.71
2022-08-11T05:36:03.439Z,30.03
2022-08-11T05:38:31.179Z,30.34
2022-08-11T05:41:36.479Z,30.04
2022-08-11T05:44:21.261Z,30.11
2022-08-11T05:46:33.003Z,30.21
2022-08-11T05:49:38.311Z,30.18
2022-08-11T05:52:13.113Z,30.56
2022-08-11T05:54:34.779Z,30.62
2022-08-11T05:57:03.100Z,30.58
2022-08-11T05:59:31.322Z,30.2
2022-08-11T06:02:36.728Z,30.58
2022-08-11T06:05:04.880Z,30.01
2022-08-11T06:07:47.165Z,30.41
2022-08-11T06:10:38.435Z,30.15
2022-08-11T06:13:06.675Z,31
2022-08-11T06:15:34.901Z,30.7
2022-08-11T06:18:03.147Z,30.61
2022-08-11T06:20:31.390Z,30.75
2022-08-11T06:23:36.734Z,30.27
2022-08-11T06:26:44.713Z,30.14
2022-08-11T06:29:02.083Z,30.47
2022-08-11T06:31:30.316Z,30.01
2022-08-11T06:34:35.645Z,30.31
2022-08-11T06:37:03.905Z,30.32
2022-08-11T06:39:32.168Z,30.09
2022-08-11T06:42:37.505Z,29.71
2022-08-11T06:45:05.702Z,29.9
2022-08-11T06:47:33.950Z,29.63
2022-08-11T06:50:02.178Z,29.8
2022-08-11T06:52:34.572Z,29.79
2022-08-11T06:55:55.301Z,30.12
2022-08-11T06:58:04.030Z,29.7
2022-08-11T07:00:33.045Z,29.09
2022-08-11T07:03:37.537Z,29.39
2022-08-11T07:06:05.784Z,28.8
2022-08-11T07:08:35.699Z,28.5
2022-08-11T07:11:39.360Z,29.28
2022-08-11T07:14:07.620Z,29.01
2022-08-11T07:16:35.902Z,28.74
2022-08-11T07:19:04.118Z,28.6
2022-08-11T07:21:42.876Z,28.37
2022-08-11T07:24:58.987Z,28.12
2022-08-11T07:26:57.797Z,28.08
2022-08-11T07:29:25.980Z,28.04
2022-08-11T07:32:31.334Z,28
2022-08-11T07:35:36.626Z,27.7
2022-08-11T07:38:07.017Z,27.61
2022-08-11T07:40:33.127Z,27.57
2022-08-11T07:43:38.392Z,27.64
2022-08-11T07:46:06.651Z,27.6
2022-08-11T07:48:34.869Z,27.65
2022-08-11T07:51:03.136Z,27.46
2022-08-11T07:53:31.369Z,27.3
2022-08-11T07:56:39.649Z,27.47
2022-08-11T07:59:08.342Z,27.31
2022-08-11T08:01:33.256Z,27.23
2022-08-11T08:04:38.517Z,27.07
2022-08-11T08:07:06.738Z,27.22
2022-08-11T08:09:35.030Z,27.48
2022-08-11T08:12:03.293Z,27.39
2022-08-11T08:14:31.532Z,26.98
2022-08-11T08:17:36.786Z,27.21
2022-08-11T08:20:05.081Z,27.11
2022-08-11T08:22:48.437Z,27.04
2022-08-11T08:25:38.641Z,27.08
2022-08-11T08:27:58.701Z,26.74
2022-08-11T08:30:26.952Z,27.29
2022-08-11T08:33:32.247Z,26.89
2022-08-11T08:36:37.579Z,26.93
2022-08-11T08:39:05.808Z,26.74
2022-08-11T08:41:34.071Z,26.7
2022-08-11T08:44:20.896Z,27.02
2022-08-11T08:46:30.604Z,26.69
2022-08-11T08:49:40.303Z,26.33
2022-08-11T08:52:22.875Z,26.18
2022-08-11T08:54:32.341Z,26.63
2022-08-11T08:57:39.558Z,26.81
2022-08-11T09:00:05.880Z,26.42
2022-08-11T09:02:43.456Z,26.83
2022-08-11T09:05:02.387Z,26.61
2022-08-11T09:07:35.585Z,26.31
2022-08-11T09:10:35.962Z,26.3
2022-08-11T09:13:04.241Z,26.04
2022-08-11T09:15:32.424Z,26.61
2022-08-11T09:18:37.754Z,27
2022-08-11T09:21:06.015Z,27.02
2022-08-11T09:26:39.571Z,26.22
2022-08-11T09:28:59.666Z,26.28
2022-08-11T09:31:27.871Z,26.25
2022-08-11T09:34:33.226Z,26.25
2022-08-11T09:37:53.969Z,26.57
2022-08-11T09:40:06.735Z,26.68
2022-08-11T09:42:35.002Z,26.7
2022-08-11T09:45:03.216Z,26.91
2022-08-11T09:47:31.480Z,26.55
2022-08-11T09:50:36.817Z,26.51
2022-08-11T09:53:35.384Z,26.42
2022-08-11T09:55:48.679Z,25.95
2022-08-11T09:58:42.239Z,25.42
2022-08-11T10:01:06.873Z,25.89
2022-08-11T10:03:38.304Z,25.74
2022-08-11T10:06:07.380Z,25.73
2022-08-11T10:08:31.660Z,25.49
2022-08-11T10:11:36.886Z,25.37
2022-08-11T10:14:32.310Z,25.21
2022-08-11T10:16:33.404Z,25.41
2022-08-11T10:19:38.736Z,25.22
2022-08-11T10:22:06.963Z,25.23
2022-08-11T10:28:18.692Z,24.77
2022-08-11T10:30:37.657Z,24.39
2022-08-11T10:33:07.347Z,24.36
2022-08-11T10:35:34.152Z,24.23
2022-08-11T10:38:07.180Z,24.38
2022-08-11T10:40:30.637Z,24.49
2022-08-11T10:43:59.870Z,23.92
2022-08-11T10:46:04.213Z,24.38
2022-08-11T10:48:32.458Z,24.36
2022-08-11T10:51:50.349Z,24.57
2022-08-11T10:54:06.022Z,24.39
2022-08-11T10:56:34.264Z,23.89
2022-08-11T10:59:04.059Z,23.7
2022-08-11T11:01:30.831Z,24.4
2022-08-11T11:04:36.092Z,23.16
2022-08-11T11:07:04.311Z,23.13
2022-08-11T11:09:32.765Z,23.96
2022-08-11T11:12:38.112Z,23.53
2022-08-11T11:15:06.756Z,23.3
2022-08-11T11:17:34.436Z,23.51
2022-08-11T11:20:02.624Z,23.71
2022-08-11T11:22:30.854Z,23.01
2022-08-11T11:25:36.183Z,23.09
2022-08-11T11:28:33.280Z,23.46
2022-08-11T11:31:38.638Z,22.82
2022-08-11T11:34:12.443Z,22.68
2022-08-11T11:36:35.099Z,22.98
2022-08-11T11:39:03.386Z,22.31
2022-08-11T11:41:31.615Z,22.21
2022-08-11T11:44:36.893Z,22.02
2022-08-11T11:47:05.158Z,21.2
2022-08-11T11:49:33.396Z,23.09
2022-08-11T11:52:38.861Z,22.38
2022-08-11T11:55:06.980Z,22.12
2022-08-11T11:57:35.214Z,21.29
2022-08-11T12:00:03.492Z,21.69
2022-08-11T12:02:31.690Z,20.87
2022-08-11T12:05:37.002Z,21.95
2022-08-11T12:08:13.023Z,21.49
2022-08-11T12:10:33.542Z,21.37
2022-08-11T12:13:38.858Z,21.39
2022-08-11T12:16:32.564Z,21.19
2022-08-11T12:18:35.320Z,21.44
2022-08-11T12:21:03.535Z,20.46
2022-08-11T12:23:31.853Z,20.5
2022-08-11T12:26:37.096Z,21.06
2022-08-11T12:29:34.271Z,20.54
2022-08-11T12:32:39.696Z,20.38
2022-08-11T12:35:07.808Z,20.2
2022-08-11T12:37:36.053Z,19.37
2022-08-11T12:40:13.039Z,20.06
2022-08-11T12:42:32.558Z,19.45
2022-08-11T12:45:37.866Z,19.45
2022-08-11T12:48:07.892Z,19.46
2022-08-11T12:50:34.380Z,19.36
2022-08-11T12:53:02.706Z,19.41
2022-08-11T12:55:30.840Z,17.94
2022-08-11T12:58:36.197Z,19.08
2022-08-11T13:01:04.486Z,18.63
2022-08-11T13:03:32.678Z,18.89
2022-08-11T13:06:37.962Z,18.48
2022-08-11T13:09:06.234Z,18.66
2022-08-11T13:11:54.814Z,19.12
2022-08-11T13:14:02.733Z,18.93
2022-08-11T13:16:30.972Z,18.76
2022-08-11T13:19:36.278Z,18.38
2022-08-11T13:22:04.548Z,18.27
2022-08-11T13:24:32.810Z,18.1
2022-08-11T13:28:15.152Z,17.71
2022-08-11T13:31:20.443Z,17.47
2022-08-11T13:34:25.749Z,18.33
2022-08-11T13:38:18.031Z,18.59
2022-08-11T13:40:45.626Z,18.45
2022-08-11T13:43:33.497Z,18.18
2022-08-11T13:46:38.830Z,16.89
2022-08-11T13:49:07.057Z,17.07
2022-08-11T13:51:35.424Z,16.96
2022-08-11T13:54:03.532Z,17.79
2022-08-11T13:56:31.873Z,16.82
2022-08-11T13:59:43.810Z,16.72
2022-08-11T14:02:23.121Z,16.38
2022-08-11T14:04:33.605Z,17.24
2022-08-11T14:07:01.916Z,16.68
2022-08-11T14:09:30.112Z,16.39
2022-08-11T14:12:35.437Z,16.71
2022-08-11T14:15:07.757Z,16.7
2022-08-11T14:17:36.182Z,16.88
2022-08-11T14:20:38.856Z,16.21
2022-08-11T14:23:05.566Z,17.03
2022-08-11T14:25:59.098Z,16.12
2022-08-11T14:28:43.950Z,17.05
2022-08-11T14:31:07.377Z,17.05
2022-08-11T14:33:38.102Z,15.67
2022-08-11T14:36:03.790Z,15.97
2022-08-11T14:38:32.064Z,16.69
2022-08-11T14:41:29.170Z,16.77
2022-08-11T14:44:34.587Z,15.27
2022-08-11T14:47:02.720Z,15.98
2022-08-11T14:49:30.951Z,14.61
2022-08-11T14:52:36.264Z,16.11
2022-08-11T14:55:04.556Z,15.99
2022-08-11T14:57:54.678Z,16.24
2022-08-11T15:00:38.154Z,15.86
2022-08-11T15:03:06.340Z,16.46
2022-08-11T15:05:34.608Z,16.58
2022-08-11T15:09:16.966Z,15.39
2022-08-11T15:12:31.339Z,17.09
2022-08-11T15:15:27.554Z,15.41
2022-08-11T15:18:32.858Z,14.92
2022-08-11T15:21:38.182Z,15.91
2022-08-11T15:24:06.452Z,16.12
2022-08-11T15:26:34.664Z,15.48
2022-08-11T15:29:02.952Z,30.49
2022-08-11T15:33:22.744Z,16.71
2022-08-11T15:36:27.717Z,16.17
2022-08-11T15:39:33.030Z,15.86
2022-08-11T15:42:30.115Z,15.73
2022-08-11T15:46:40.197Z,16.81
2022-08-11T15:48:05.548Z,16.07
2022-08-11T15:50:31.952Z,15.86
2022-08-11T15:53:37.253Z,16.72
2022-08-11T15:56:05.532Z,16.84
2022-08-11T15:58:33.741Z,16.34
2022-08-11T16:01:39.050Z,15.59
2022-08-11T16:04:08.884Z,16.32
2022-08-11T16:06:35.597Z,15.99
2022-08-11T16:09:03.801Z,16.72
2022-08-11T16:11:32.003Z,16.92
2022-08-11T16:14:37.373Z,15.92
2022-08-11T16:17:05.634Z,15.69
2022-08-11T16:19:33.817Z,15.92
2022-08-11T16:22:02.072Z,16.04
2022-08-11T16:25:59.021Z,16.55
2022-08-11T16:27:35.727Z,15.35
2022-08-11T16:30:03.878Z,15.07
2022-08-11T16:32:32.138Z,16.38
2022-08-11T16:35:37.473Z,16.16
2022-08-11T16:38:05.696Z,15.98
2022-08-11T16:40:25.759Z,15.42
2022-08-11T16:43:31.053Z,16.07
2022-08-11T16:46:36.384Z,15.93
2022-08-11T16:49:04.634Z,16.12
2022-08-11T16:51:32.926Z,16.08
2022-08-11T16:54:38.178Z,15.89
2022-08-11T16:57:14.419Z,15.34
2022-08-11T16:59:34.738Z,15.84
2022-08-11T17:02:02.948Z,15.63
2022-08-11T17:04:31.344Z,15.37
2022-08-11T17:07:40.185Z,15.09
2022-08-11T17:10:04.738Z,15.39
2022-08-11T17:12:33.010Z,17.21
2022-08-11T17:15:38.289Z,17.41
2022-08-11T17:18:06.571Z,16.52
2022-08-11T17:20:39.351Z,17.69
2022-08-11T17:23:03.053Z,16.49
2022-08-11T17:26:08.352Z,16.18
2022-08-11T17:28:36.635Z,15.73
2022-08-11T17:31:10.809Z,16.44
2022-08-11T17:33:33.075Z,15.78
2022-08-11T17:36:40.406Z,16.75
2022-08-11T17:39:06.672Z,16
2022-08-11T17:42:03.773Z,15.89
2022-08-11T17:44:32.045Z,15.96
2022-08-11T17:47:37.321Z,16.13
2022-08-11T17:50:09.066Z,16.39
2022-08-11T17:52:35.483Z,16.68
2022-08-11T17:55:51.277Z,14.99
2022-08-11T17:58:07.404Z,14.98
2022-08-11T18:00:35.672Z,16.03
2022-08-11T18:03:03.914Z,15.09
2022-08-11T18:05:32.158Z,16.21
2022-08-11T18:08:37.436Z,17.11
2022-08-11T18:11:05.676Z,15.49
2022-08-11T18:13:34.009Z,15.92
2022-08-11T18:16:39.258Z,15.63
2022-08-11T18:19:07.492Z,16.08
2022-08-11T18:21:35.736Z,15.19
2022-08-11T18:24:04.016Z,15.31
2022-08-11T18:26:32.227Z,15.16
2022-08-11T18:29:40.349Z,15.11
2022-08-11T18:32:05.787Z,15.3
2022-08-11T18:34:34.088Z,15.56
2022-08-11T18:37:39.417Z,15.89
2022-08-11T18:40:07.614Z,16.12
2022-08-11T18:42:35.882Z,16.5
2022-08-11T18:44:55.929Z,16.18
2022-08-11T18:47:25.813Z,16.39
2022-08-11T18:50:38.944Z,16.6
2022-08-11T18:53:34.788Z,17.04
2022-08-11T18:56:03.026Z,16.56
2022-08-11T18:59:08.312Z,17.05
2022-08-11T19:01:36.583Z,17.24
2022-08-11T19:04:10.461Z,17.23
2022-08-11T19:06:39.623Z,17.29
2022-08-11T19:09:38.428Z,17.3
2022-08-11T19:12:06.641Z,17.3
2022-08-11T19:14:34.902Z,17.5
2022-08-11T19:17:03.192Z,17.43
2022-08-11T19:19:31.409Z,17.53
2022-08-11T19:22:36.680Z,17.62
2022-08-11T19:25:04.927Z,17.9
2022-08-11T19:27:33.247Z,17.92
2022-08-11T19:30:38.512Z,18.16
2022-08-11T19:33:06.757Z,18.14
2022-08-11T19:35:35.052Z,18.4
2022-08-11T19:38:03.239Z,18.39
2022-08-11T19:40:31.554Z,18.43
2022-08-11T19:43:28.654Z,18.58
2022-08-11T19:46:33.954Z,18.79
2022-08-11T19:49:39.253Z,18.82
2022-08-11T19:52:07.543Z,18.98
2022-08-11T19:54:35.797Z,19.14
2022-08-11T19:57:03.995Z,19.19
2022-08-11T19:59:32.254Z,19.51
2022-08-11T20:02:37.596Z,19.31
2022-08-11T20:05:05.835Z,19.4
2022-08-11T20:07:34.050Z,19.68
2022-08-11T20:10:05.590Z,19.54
2022-08-11T20:12:30.556Z,19.57
2022-08-11T20:15:35.871Z,19.77
2022-08-11T20:18:04.103Z,17.03
2022-08-11T20:21:20.996Z,19.99
2022-08-11T20:23:37.683Z,20.55
2022-08-11T20:26:20.685Z,20.17
2022-08-11T20:28:34.177Z,20.08
2022-08-11T20:31:02.446Z,20.33
2022-08-11T20:33:30.649Z,20.37
2022-08-11T20:36:36.012Z,20.58
2022-08-11T20:39:04.221Z,20.43
2022-08-11T20:41:32.497Z,20.6
2022-08-11T20:44:29.573Z,20.69
2022-08-11T20:47:56.585Z,20.99
2022-08-11T20:50:03.312Z,19.94
2022-08-11T20:53:08.463Z,20.79
2022-08-11T20:55:46.004Z,20.8
2022-08-11T20:58:05.726Z,20.61
2022-08-11T21:00:38.614Z,21.61
2022-08-11T21:03:44.484Z,21.3
2022-08-11T21:06:08.452Z,21.18
2022-08-11T21:08:35.006Z,21.41
2022-08-11T21:11:03.253Z,21.89
2022-08-11T21:13:31.529Z,21.79
2022-08-11T21:18:28.481Z,21.43
2022-08-11T21:21:45.418Z,21.27
2022-08-11T21:24:38.615Z,22.13
2022-08-11T21:27:06.874Z,21.66
2022-08-11T21:29:35.153Z,21.98
2022-08-11T21:32:03.385Z,21.92
2022-08-11T21:34:31.614Z,21.98
2022-08-11T21:37:36.941Z,22.03
2022-08-11T21:40:05.198Z,22
2022-08-11T21:42:33.419Z,22.25
2022-08-11T21:45:30.568Z,22.31
2022-08-11T21:48:35.863Z,22.32
2022-08-11T21:51:04.107Z,21.27
2022-08-11T21:54:09.403Z,22.53
2022-08-11T21:56:37.662Z,22.8
2022-08-11T21:59:06.969Z,22.87
2022-08-11T22:01:34.606Z,22.74
2022-08-11T22:04:39.469Z,22.98
2022-08-11T22:07:07.715Z,23.01
2022-08-11T22:09:35.981Z,23.09
2022-08-11T22:12:30.510Z,22.42
2022-08-11T22:14:32.431Z,23.22
2022-08-11T22:18:14.866Z,22.86
2022-08-11T22:21:56.910Z,23.03
2022-08-11T22:24:26.001Z,23.39
2022-08-11T22:27:30.770Z,23.32
2022-08-11T22:30:36.095Z,23.07
2022-08-11T22:33:04.389Z,23.31
2022-08-11T22:35:32.597Z,23.68
2022-08-11T22:38:37.888Z,23.5
2022-08-11T22:41:06.135Z,23.79
2022-08-11T22:44:03.264Z,23.78
2022-08-11T22:46:31.527Z,24.09
2022-08-11T22:50:30.489Z,23.82
2022-08-11T22:52:58.754Z,24.03
2022-08-11T22:55:27.031Z,23.62
2022-08-11T22:58:32.310Z,23.83
2022-08-11T23:01:00.634Z,23.77
2022-08-11T23:03:34.366Z,24.14
2022-08-11T23:05:57.075Z,24.26
2022-08-11T23:08:25.298Z,24.13
2022-08-11T23:11:31.576Z,24.34
2022-08-11T23:13:58.864Z,24.11
2022-08-11T23:16:27.090Z,24
2022-08-11T23:20:00.413Z,24.16
2022-08-11T23:22:00.665Z,24.09
2022-08-11T23:24:28.933Z,24.05
2022-08-11T23:26:57.152Z,24.36
2022-08-11T23:29:25.412Z,24.14
2022-08-11T23:32:30.735Z,24.58
2022-08-11T23:35:05.002Z,24.25
2022-08-11T23:37:27.210Z,24.42
2022-08-11T23:40:32.543Z,24.3
2022-08-11T23:43:00.761Z,24.46
2022-08-11T23:45:22.762Z,24.64
2022-08-11T23:48:26.142Z,25.1
2022-08-11T23:52:08.530Z,24.95
2022-08-11T23:55:13.834Z,24.71
2022-08-11T23:58:19.143Z,25.33
